METAR Data
IDs: Format: Raw Decoded Include TAF

Data at: 0643 UTC 07 Dec 2022

KMFR 070553Z AUTO 00000KT 10SM CLR 00/M01 A3017 RMK AO2 SLP227 T00001011 10083 21006 53011
KMFR 070453Z AUTO 00000KT 10SM CLR M01/M01 A3016 RMK AO2 SLP224 T10061011
KMFR 070353Z 00000KT 7SM CLR 02/01 A3015 RMK AO2 SLP219 T00220006
KMFR 070253Z 00000KT 8SM CLR 04/01 A3014 RMK AO2 SLP214 T00390011 53007
KMFR 070153Z 20005KT 10SM CLR 04/01 A3013 RMK AO2 SLP211 T00390011
KMFR 070053Z 00000KT 10SM CLR 07/01 A3012 RMK AO2 SLP206 T00670011
KMFR 062353Z 28003KT 10SM CLR 08/01 A3012 RMK AO2 SLP205 T00830011 10089 20039 55003
KMFR 062253Z 32003KT 10SM FEW055 08/02 A3012 RMK AO2 SLP204 T00830017
KMFR 062153Z 00000KT 10SM FEW055 07/02 A3012 RMK AO2 SLP205 T00720017
KMFR 062053Z 00000KT 10SM FEW018 06/02 A3013 RMK AO2 SLP209 T00610017 58006
KMFR 062027Z 10003KT 10SM SCT017 06/02 A3013 RMK AO2 T00610017
KMFR 061953Z 01006KT 10SM OVC016 06/01 A3014 RMK AO2 SLP213 T00560011
KMFR 061853Z 00000KT 10SM BKN007 OVC018 05/02 A3015 RMK AO2 SLP217 T00500022
KMFR 061753Z 00000KT 10SM BKN007 OVC018 04/02 A3015 RMK AO2 CIG 006V010 SLP216 T00390017 10039 20022 53007
KMFR 061653Z 00000KT 10SM OVC007 03/02 A3014 RMK AO2 SLP214 T00280017
KMFR 061553Z 36003KT 10SM OVC006 02/02 A3013 RMK AO2 SLP209 T00220017
KMFR 061550Z 36003KT 10SM OVC006 02/02 A3013 RMK AO2
KMFR 061533Z 02003KT 9SM OVC004 02/02 A3012 RMK AO2 CIG 002V006 T00220017
KMFR 061453Z 02003KT 10SM OVC007 02/02 A3011 RMK AO2 SLP203 T00220017 53013
KMFR 061353Z 00000KT 10SM OVC007 03/02 A3009 RMK AO2 SLP194 T00280017
KMFR 061253Z AUTO 01003KT 10SM OVC007 03/02 A3007 RMK AO2 SLP189 T00280017
KMFR 061218Z AUTO 00000KT 10SM BKN007 OVC013 03/01 A3007 RMK AO2 T00280011
KMFR 061153Z AUTO 00000KT 10SM FEW007 OVC012 03/01 A3007 RMK AO2 SLP187 70003 T00280011 10039 20011 50005
KMFR 061123Z AUTO 18003KT 10SM FEW007 OVC012 02/01 A3007 RMK AO2 T00220011
KMFR 061053Z AUTO 00000KT 10SM OVC012 03/02 A3007 RMK AO2 SLP188 T00280017
KMFR 060953Z AUTO 00000KT 10SM OVC012 02/02 A3007 RMK AO2 SLP187 T00220017
KMFR 060929Z AUTO 18003KT 10SM BKN012 OVC021 02/01 A3006 RMK AO2 T00170011
KMFR 060853Z AUTO 00000KT 9SM OVC021 02/01 A3006 RMK AO2 SLP183 T00220011 53008
KMFR 060841Z AUTO 00000KT 9SM BKN021 01/01 A3005 RMK AO2 T00110006
KMFR 060753Z AUTO 00000KT 10SM OVC031 03/02 A3005 RMK AO2 SLP179 T00330022 401000022
KMFR 060653Z AUTO 00000KT 10SM OVC029 03/02 A3004 RMK AO2 SLP177 T00330022
KMFR 060553Z AUTO 25003KT 10SM BKN028 03/02 A3003 RMK AO2 SLP175 60000 T00330022 10089 20033 51017
KMFR 060453Z AUTO 00000KT 10SM SCT065 05/03 A3002 RMK AO2 SLP170 T00500033
KMFR 060353Z AUTO 21003KT 10SM OVC070 07/03 A3000 RMK AO2 SLP164 T00670033
KMFR 060253Z AUTO 26003KT 10SM OVC065 07/03 A2998 RMK AO2 SLP157 60000 T00670033 53009
KMFR 060153Z AUTO 19005KT 10SM SCT037 BKN049 07/03 A2997 RMK AO2 RAE0055 SLP153 P0000 T00720033
KMFR 060053Z COR 00000KT 10SM -RA SCT032 BKN049 08/03 A2995 RMK AO2 RAB43 SLP148 P0000 T00830033
KMFR 052353Z COR 00000KT 10SM SCT042 SCT049 09/03 A2995 RMK AO2 SLP145 T00890028 10100 20050 53004
KMFR 052253Z COR 01003KT 10SM SCT080 10/03 A2993 RMK AO2 SLP140 T01000028
KMFR 052153Z 00000KT 10SM SCT080 09/03 A2993 RMK AO2 SLP140 T00890033
KMFR 052053Z 00000KT 10SM SCT018 BKN080 08/04 A2994 RMK AO2 SLP142 T00780039 58008
KMFR 051953Z COR 00000KT 10SM SCT085 08/04 A2995 RMK AO2 SLP147 T00830039
KMFR 051907Z 03003KT 10SM FEW007 OVC090 07/05 A2996 RMK AO2 T00720050
KMFR 051853Z 00000KT 10SM OVC090 07/04 A2997 RMK AO2 SLP152 T00720044